sensor_id;sensor_type;location;lat;lon;timestamp;pressure;altitude;pressure_sealevel;temperature;humidity
76864;BME280;65834;52.364;9.754;2023-04-25T00:02:13;100005.84;;;8.31;nan
76864;BME280;65834;52.364;9.754;2023-04-25T00:04:45;100008.16;;;8.19;nan
76864;BME280;65834;52.364;9.754;2023-04-25T00:07:15;99999.53;;;8.24;nan
76864;BME280;65834;52.364;9.754;2023-04-25T00:09:46;99999.72;;;8.22;nan
76864;BME280;65834;52.364;9.754;2023-04-25T00:12:15;100007.53;;;8.32;nan
76864;BME280;65834;52.364;9.754;2023-04-25T00:14:45;100003.16;;;8.31;nan
76864;BME280;65834;52.364;9.754;2023-04-25T00:17:16;100006.69;;;8.46;nan
76864;BME280;65834;52.364;9.754;2023-04-25T00:19:48;100005.47;;;8.48;nan
76864;BME280;65834;52.364;9.754;2023-04-25T00:22:18;100009.69;;;8.36;nan
76864;BME280;65834;52.364;9.754;2023-04-25T00:24:48;100010.88;;;8.48;nan
76864;BME280;65834;52.364;9.754;2023-04-25T00:27:19;100010.78;;;8.42;nan
76864;BME280;65834;52.364;9.754;2023-04-25T00:29:49;100011.06;;;8.32;nan
76864;BME280;65834;52.364;9.754;2023-04-25T00:32:19;100020.16;;;8.46;nan
76864;BME280;65834;52.364;9.754;2023-04-25T00:34:51;100009.81;;;8.49;nan
76864;BME280;65834;52.364;9.754;2023-04-25T00:37:22;100014.56;;;8.47;nan
76864;BME280;65834;52.364;9.754;2023-04-25T00:39:52;100011.78;;;8.41;nan
76864;BME280;65834;52.364;9.754;2023-04-25T00:42:22;100009.09;;;8.26;nan
76864;BME280;65834;52.364;9.754;2023-04-25T00:44:52;100012.34;;;8.22;nan
76864;BME280;65834;52.364;9.754;2023-04-25T00:47:22;100006.97;;;8.36;nan
76864;BME280;65834;52.364;9.754;2023-04-25T00:49:55;100007.53;;;8.32;nan
76864;BME280;65834;52.364;9.754;2023-04-25T00:52:25;100008.38;;;8.32;nan
76864;BME280;65834;52.364;9.754;2023-04-25T00:54:54;100010.56;;;8.43;nan
76864;BME280;65834;52.364;9.754;2023-04-25T00:57:24;100006.41;;;8.41;nan
76864;BME280;65834;52.364;9.754;2023-04-25T00:59:55;100002.22;;;8.38;nan
76864;BME280;65834;52.364;9.754;2023-04-25T01:02:25;99994.53;;;8.35;nan
76864;BME280;65834;52.364;9.754;2023-04-25T01:04:58;99993.50;;;8.36;nan
76864;BME280;65834;52.364;9.754;2023-04-25T01:07:28;100004.38;;;8.43;nan
76864;BME280;65834;52.364;9.754;2023-04-25T01:09:57;100001.22;;;8.39;nan
76864;BME280;65834;52.364;9.754;2023-04-25T01:12:27;100008.09;;;8.42;nan
76864;BME280;65834;52.364;9.754;2023-04-25T01:14:57;100005.31;;;8.35;nan
76864;BME280;65834;52.364;9.754;2023-04-25T01:17:27;100003.06;;;8.39;nan
76864;BME280;65834;52.364;9.754;2023-04-25T01:20:02;99993.13;;;8.39;nan
76864;BME280;65834;52.364;9.754;2023-04-25T01:22:37;99994.09;;;8.53;nan
76864;BME280;65834;52.364;9.754;2023-04-25T01:25:07;99994.31;;;8.37;nan
76864;BME280;65834;52.364;9.754;2023-04-25T01:27:38;100001.22;;;8.39;nan
76864;BME280;65834;52.364;9.754;2023-04-25T01:30:09;99999.72;;;8.37;nan
76864;BME280;65834;52.364;9.754;2023-04-25T01:32:40;99987.75;;;8.39;nan
76864;BME280;65834;52.364;9.754;2023-04-25T01:35:12;99992.84;;;8.34;nan
76864;BME280;65834;52.364;9.754;2023-04-25T01:37:44;99979.84;;;8.38;nan
76864;BME280;65834;52.364;9.754;2023-04-25T01:40:14;99987.84;;;8.46;nan
76864;BME280;65834;52.364;9.754;2023-04-25T01:42:45;99987.06;;;8.23;nan
76864;BME280;65834;52.364;9.754;2023-04-25T01:45:14;99986.34;;;8.29;nan
76864;BME280;65834;52.364;9.754;2023-04-25T01:47:45;99997.00;;;8.22;nan
76864;BME280;65834;52.364;9.754;2023-04-25T01:50:17;99998.91;;;8.36;nan
76864;BME280;65834;52.364;9.754;2023-04-25T01:52:50;100007.88;;;8.43;nan
76864;BME280;65834;52.364;9.754;2023-04-25T01:55:20;100005.09;;;8.37;nan
76864;BME280;65834;52.364;9.754;2023-04-25T01:58:00;100007.72;;;8.45;nan
76864;BME280;65834;52.364;9.754;2023-04-25T02:00:49;100016.09;;;8.35;nan
76864;BME280;65834;52.364;9.754;2023-04-25T02:03:19;100013.56;;;8.19;nan
76864;BME280;65834;52.364;9.754;2023-04-25T02:05:49;100012.56;;;8.35;nan
76864;BME280;65834;52.364;9.754;2023-04-25T02:08:22;100011.91;;;8.33;nan
76864;BME280;65834;52.364;9.754;2023-04-25T02:10:54;100027.25;;;8.32;nan
76864;BME280;65834;52.364;9.754;2023-04-25T02:13:30;100023.94;;;8.22;nan
76864;BME280;65834;52.364;9.754;2023-04-25T02:16:12;100029.47;;;8.29;nan
76864;BME280;65834;52.364;9.754;2023-04-25T02:18:42;100038.66;;;8.49;nan
76864;BME280;65834;52.364;9.754;2023-04-25T02:21:11;100032.25;;;8.21;nan
76864;BME280;65834;52.364;9.754;2023-04-25T02:23:45;100048.78;;;8.17;nan
76864;BME280;65834;52.364;9.754;2023-04-25T02:26:16;100045.25;;;8.02;nan
76864;BME280;65834;52.364;9.754;2023-04-25T02:28:46;100048.69;;;8.11;nan
76864;BME280;65834;52.364;9.754;2023-04-25T02:31:16;100052.69;;;8.15;nan
76864;BME280;65834;52.364;9.754;2023-04-25T02:33:46;100062.22;;;8.03;nan
76864;BME280;65834;52.364;9.754;2023-04-25T02:36:15;100058.84;;;7.72;nan
76864;BME280;65834;52.364;9.754;2023-04-25T02:38:50;100063.78;;;7.83;nan
76864;BME280;65834;52.364;9.754;2023-04-25T02:41:20;100067.34;;;7.98;nan
76864;BME280;65834;52.364;9.754;2023-04-25T02:43:49;100061.19;;;8.18;nan
76864;BME280;65834;52.364;9.754;2023-04-25T02:46:19;100069.38;;;8.10;nan
76864;BME280;65834;52.364;9.754;2023-04-25T02:49:03;100066.78;;;8.17;nan
76864;BME280;65834;52.364;9.754;2023-04-25T02:51:34;100062.72;;;8.21;nan
76864;BME280;65834;52.364;9.754;2023-04-25T02:54:06;100060.44;;;8.25;nan
76864;BME280;65834;52.364;9.754;2023-04-25T02:56:40;100067.91;;;8.37;nan
76864;BME280;65834;52.364;9.754;2023-04-25T02:59:14;100067.44;;;8.19;nan
76864;BME280;65834;52.364;9.754;2023-04-25T03:01:44;100068.16;;;8.13;nan
76864;BME280;65834;52.364;9.754;2023-04-25T03:04:13;100064.56;;;8.21;nan
76864;BME280;65834;52.364;9.754;2023-04-25T03:06:46;100062.22;;;8.03;nan
76864;BME280;65834;52.364;9.754;2023-04-25T03:09:18;100065.47;;;8.13;nan
76864;BME280;65834;52.364;9.754;2023-04-25T03:11:48;100070.88;;;7.98;nan
76864;BME280;65834;52.364;9.754;2023-04-25T03:14:18;100069.38;;;7.96;nan
76864;BME280;65834;52.364;9.754;2023-04-25T03:16:48;100063.69;;;7.91;nan
76864;BME280;65834;52.364;9.754;2023-04-25T03:19:18;100068.31;;;7.68;nan
76864;BME280;65834;52.364;9.754;2023-04-25T03:21:47;100057.19;;;7.71;nan
76864;BME280;65834;52.364;9.754;2023-04-25T03:24:21;100070.97;;;7.90;nan
76864;BME280;65834;52.364;9.754;2023-04-25T03:26:51;100075.31;;;7.91;nan
76864;BME280;65834;52.364;9.754;2023-04-25T03:29:21;100080.59;;;7.85;nan
76864;BME280;65834;52.364;9.754;2023-04-25T03:31:54;100087.13;;;7.90;nan
76864;BME280;65834;52.364;9.754;2023-04-25T03:34:24;100087.88;;;7.99;nan
76864;BME280;65834;52.364;9.754;2023-04-25T03:36:55;100096.28;;;7.81;nan
76864;BME280;65834;52.364;9.754;2023-04-25T03:39:27;100099.72;;;7.75;nan
76864;BME280;65834;52.364;9.754;2023-04-25T03:41:57;100095.63;;;7.79;nan
76864;BME280;65834;52.364;9.754;2023-04-25T03:44:28;100096.81;;;7.77;nan
76864;BME280;65834;52.364;9.754;2023-04-25T03:46:58;100098.66;;;7.76;nan
76864;BME280;65834;52.364;9.754;2023-04-25T03:49:28;100109.81;;;7.73;nan
76864;BME280;65834;52.364;9.754;2023-04-25T03:52:00;100111.41;;;7.82;nan
76864;BME280;65834;52.364;9.754;2023-04-25T03:54:38;100109.44;;;7.76;nan
76864;BME280;65834;52.364;9.754;2023-04-25T03:57:10;100114.06;;;7.68;nan
76864;BME280;65834;52.364;9.754;2023-04-25T03:59:41;100120.91;;;7.55;nan
76864;BME280;65834;52.364;9.754;2023-04-25T04:02:13;100121.06;;;7.77;nan
76864;BME280;65834;52.364;9.754;2023-04-25T04:04:43;100118.34;;;7.77;nan
76864;BME280;65834;52.364;9.754;2023-04-25T04:07:14;100120.03;;;7.78;nan
76864;BME280;65834;52.364;9.754;2023-04-25T04:09:48;100113.97;;;7.76;nan
76864;BME280;65834;52.364;9.754;2023-04-25T04:12:24;100115.41;;;7.86;nan
76864;BME280;65834;52.364;9.754;2023-04-25T04:14:55;100122.91;;;7.76;nan
76864;BME280;65834;52.364;9.754;2023-04-25T04:17:24;100118.59;;;7.90;nan
76864;BME280;65834;52.364;9.754;2023-04-25T04:19:54;100127.06;;;7.79;nan
76864;BME280;65834;52.364;9.754;2023-04-25T04:22:24;100130.66;;;7.56;nan
76864;BME280;65834;52.364;9.754;2023-04-25T04:25:00;100130.50;;;7.73;nan
76864;BME280;65834;52.364;9.754;2023-04-25T04:27:51;100139.66;;;7.86;nan
76864;BME280;65834;52.364;9.754;2023-04-25T04:30:27;100133.81;;;7.97;nan
76864;BME280;65834;52.364;9.754;2023-04-25T04:33:01;100132.78;;;7.84;nan
76864;BME280;65834;52.364;9.754;2023-04-25T04:35:30;100134.50;;;7.77;nan
76864;BME280;65834;52.364;9.754;2023-04-25T04:38:00;100139.25;;;7.52;nan
76864;BME280;65834;52.364;9.754;2023-04-25T04:40:35;100148.34;;;7.74;nan
76864;BME280;65834;52.364;9.754;2023-04-25T04:43:14;100152.22;;;7.71;nan
76864;BME280;65834;52.364;9.754;2023-04-25T04:46:01;100151.91;;;7.66;nan
76864;BME280;65834;52.364;9.754;2023-04-25T04:48:52;100159.44;;;7.93;nan
76864;BME280;65834;52.364;9.754;2023-04-25T04:51:41;100158.13;;;7.67;nan
76864;BME280;65834;52.364;9.754;2023-04-25T04:54:36;100165.81;;;7.78;nan
76864;BME280;65834;52.364;9.754;2023-04-25T04:57:29;100162.88;;;7.64;nan
76864;BME280;65834;52.364;9.754;2023-04-25T05:00:19;100163.47;;;7.52;nan
76864;BME280;65834;52.364;9.754;2023-04-25T05:03:09;100166.16;;;7.75;nan
76864;BME280;65834;52.364;9.754;2023-04-25T05:05:48;100172.91;;;7.71;nan
76864;BME280;65834;52.364;9.754;2023-04-25T05:08:36;100182.31;;;7.75;nan
76864;BME280;65834;52.364;9.754;2023-04-25T05:11:09;100175.84;;;7.61;nan
76864;BME280;65834;52.364;9.754;2023-04-25T05:14:04;100190.44;;;7.67;nan
76864;BME280;65834;52.364;9.754;2023-04-25T05:16:44;100174.78;;;7.47;nan
76864;BME280;65834;52.364;9.754;2023-04-25T05:19:29;100183.56;;;7.64;nan
76864;BME280;65834;52.364;9.754;2023-04-25T05:22:17;100185.97;;;7.59;nan
76864;BME280;65834;52.364;9.754;2023-04-25T05:24:59;100191.16;;;7.60;nan
76864;BME280;65834;52.364;9.754;2023-04-25T05:27:48;100187.88;;;7.73;nan
76864;BME280;65834;52.364;9.754;2023-04-25T05:30:30;100186.25;;;7.87;nan
76864;BME280;65834;52.364;9.754;2023-04-25T05:33:08;100208.31;;;7.82;nan
76864;BME280;65834;52.364;9.754;2023-04-25T05:35:38;100201.63;;;7.55;nan
76864;BME280;65834;52.364;9.754;2023-04-25T05:38:08;100207.38;;;7.52;nan
76864;BME280;65834;52.364;9.754;2023-04-25T05:40:58;100220.75;;;7.60;nan
76864;BME280;65834;52.364;9.754;2023-04-25T05:43:55;100220.41;;;7.63;nan
76864;BME280;65834;52.364;9.754;2023-04-25T05:46:50;100229.38;;;7.56;nan
76864;BME280;65834;52.364;9.754;2023-04-25T05:49:29;100222.69;;;7.75;nan
76864;BME280;65834;52.364;9.754;2023-04-25T05:52:19;100234.41;;;7.82;nan
76864;BME280;65834;52.364;9.754;2023-04-25T05:55:02;100236.34;;;7.96;nan
76864;BME280;65834;52.364;9.754;2023-04-25T05:57:32;100234.00;;;7.70;nan
76864;BME280;65834;52.364;9.754;2023-04-25T06:00:02;100231.72;;;7.82;nan
76864;BME280;65834;52.364;9.754;2023-04-25T06:02:46;100239.78;;;7.82;nan
76864;BME280;65834;52.364;9.754;2023-04-25T06:05:15;100235.44;;;7.81;nan
76864;BME280;65834;52.364;9.754;2023-04-25T06:07:46;100227.41;;;7.95;nan
76864;BME280;65834;52.364;9.754;2023-04-25T06:10:16;100254.59;;;8.08;nan
76864;BME280;65834;52.364;9.754;2023-04-25T06:12:46;100262.91;;;7.99;nan
76864;BME280;65834;52.364;9.754;2023-04-25T06:15:17;100266.53;;;8.06;nan
76864;BME280;65834;52.364;9.754;2023-04-25T06:17:56;100240.75;;;7.89;nan
76864;BME280;65834;52.364;9.754;2023-04-25T06:20:26;100262.31;;;8.11;nan
76864;BME280;65834;52.364;9.754;2023-04-25T06:22:58;100263.56;;;8.01;nan
76864;BME280;65834;52.364;9.754;2023-04-25T06:26:03;100265.34;;;8.08;nan
76864;BME280;65834;52.364;9.754;2023-04-25T06:28:35;100269.53;;;8.11;nan
76864;BME280;65834;52.364;9.754;2023-04-25T06:31:05;100260.03;;;7.78;nan
76864;BME280;65834;52.364;9.754;2023-04-25T06:33:37;100277.09;;;7.93;nan
76864;BME280;65834;52.364;9.754;2023-04-25T06:36:07;100272.59;;;8.08;nan
76864;BME280;65834;52.364;9.754;2023-04-25T06:38:37;100261.88;;;8.00;nan
76864;BME280;65834;52.364;9.754;2023-04-25T06:41:07;100267.94;;;8.02;nan
76864;BME280;65834;52.364;9.754;2023-04-25T06:43:37;100273.84;;;7.97;nan
76864;BME280;65834;52.364;9.754;2023-04-25T06:46:23;100268.91;;;8.09;nan
76864;BME280;65834;52.364;9.754;2023-04-25T06:48:56;100275.66;;;8.05;nan
76864;BME280;65834;52.364;9.754;2023-04-25T06:51:26;100279.06;;;7.99;nan
76864;BME280;65834;52.364;9.754;2023-04-25T06:53:57;100271.22;;;8.12;nan
76864;BME280;65834;52.364;9.754;2023-04-25T06:56:33;100270.66;;;8.16;nan
76864;BME280;65834;52.364;9.754;2023-04-25T06:59:13;100277.16;;;8.30;nan
76864;BME280;65834;52.364;9.754;2023-04-25T07:01:44;100286.88;;;8.39;nan
76864;BME280;65834;52.364;9.754;2023-04-25T07:04:20;100293.78;;;8.34;nan
76864;BME280;65834;52.364;9.754;2023-04-25T07:06:54;100283.81;;;8.42;nan
76864;BME280;65834;52.364;9.754;2023-04-25T07:09:40;100278.66;;;8.33;nan
76864;BME280;65834;52.364;9.754;2023-04-25T07:12:09;100291.56;;;8.37;nan
76864;BME280;65834;52.364;9.754;2023-04-25T07:14:39;100288.56;;;8.55;nan
76864;BME280;65834;52.364;9.754;2023-04-25T07:17:09;100289.56;;;8.39;nan
76864;BME280;65834;52.364;9.754;2023-04-25T07:19:42;100290.28;;;8.33;nan
76864;BME280;65834;52.364;9.754;2023-04-25T07:22:11;100274.13;;;8.25;nan
76864;BME280;65834;52.364;9.754;2023-04-25T07:24:41;100305.81;;;8.23;nan
76864;BME280;65834;52.364;9.754;2023-04-25T07:27:17;100299.28;;;8.17;nan
76864;BME280;65834;52.364;9.754;2023-04-25T07:29:54;100304.13;;;8.30;nan
76864;BME280;65834;52.364;9.754;2023-04-25T07:32:25;100307.63;;;8.31;nan
76864;BME280;65834;52.364;9.754;2023-04-25T07:34:58;100317.63;;;8.45;nan
76864;BME280;65834;52.364;9.754;2023-04-25T07:37:28;100309.44;;;8.38;nan
76864;BME280;65834;52.364;9.754;2023-04-25T07:40:14;100314.81;;;8.38;nan
76864;BME280;65834;52.364;9.754;2023-04-25T07:42:54;100315.94;;;8.44;nan
76864;BME280;65834;52.364;9.754;2023-04-25T07:45:32;100316.53;;;8.31;nan
76864;BME280;65834;52.364;9.754;2023-04-25T07:48:02;100316.50;;;8.39;nan
76864;BME280;65834;52.364;9.754;2023-04-25T07:50:38;100331.16;;;8.37;nan
76864;BME280;65834;52.364;9.754;2023-04-25T07:53:10;100317.31;;;8.17;nan
76864;BME280;65834;52.364;9.754;2023-04-25T07:55:47;100335.38;;;8.39;nan
76864;BME280;65834;52.364;9.754;2023-04-25T07:58:17;100324.34;;;8.49;nan
76864;BME280;65834;52.364;9.754;2023-04-25T08:00:52;100330.75;;;8.48;nan
76864;BME280;65834;52.364;9.754;2023-04-25T08:03:44;100340.97;;;8.52;nan
76864;BME280;65834;52.364;9.754;2023-04-25T08:06:23;100327.69;;;8.51;nan
76864;BME280;65834;52.364;9.754;2023-04-25T08:09:05;100336.63;;;8.51;nan
76864;BME280;65834;52.364;9.754;2023-04-25T08:11:38;100328.81;;;8.56;nan
76864;BME280;65834;52.364;9.754;2023-04-25T08:14:11;100351.47;;;8.47;nan
76864;BME280;65834;52.364;9.754;2023-04-25T08:16:42;100335.38;;;8.39;nan
76864;BME280;65834;52.364;9.754;2023-04-25T08:19:12;100346.16;;;8.08;nan
76864;BME280;65834;52.364;9.754;2023-04-25T08:21:45;100357.66;;;8.25;nan
76864;BME280;65834;52.364;9.754;2023-04-25T08:24:19;100347.09;;;8.46;nan
76864;BME280;65834;52.364;9.754;2023-04-25T08:26:49;100343.41;;;8.62;nan
76864;BME280;65834;52.364;9.754;2023-04-25T08:29:21;100348.56;;;8.71;nan
76864;BME280;65834;52.364;9.754;2023-04-25T08:31:52;100335.56;;;8.52;nan
76864;BME280;65834;52.364;9.754;2023-04-25T08:34:22;100336.72;;;8.58;nan
76864;BME280;65834;52.364;9.754;2023-04-25T08:36:54;100354.72;;;8.80;nan
76864;BME280;65834;52.364;9.754;2023-04-25T08:39:47;100356.41;;;8.81;nan
76864;BME280;65834;52.364;9.754;2023-04-25T08:42:42;100365.63;;;9.01;nan
76864;BME280;65834;52.364;9.754;2023-04-25T08:45:13;100365.97;;;8.84;nan
76864;BME280;65834;52.364;9.754;2023-04-25T08:47:43;100349.03;;;8.75;nan
76864;BME280;65834;52.364;9.754;2023-04-25T08:50:15;100370.50;;;9.20;nan
76864;BME280;65834;52.364;9.754;2023-04-25T08:52:53;100369.06;;;8.95;nan
76864;BME280;65834;52.364;9.754;2023-04-25T08:55:25;100365.19;;;8.98;nan
76864;BME280;65834;52.364;9.754;2023-04-25T08:57:59;100370.56;;;8.98;nan
76864;BME280;65834;52.364;9.754;2023-04-25T09:00:30;100368.03;;;8.96;nan
76864;BME280;65834;52.364;9.754;2023-04-25T09:03:00;100383.97;;;9.06;nan
76864;BME280;65834;52.364;9.754;2023-04-25T09:05:32;100388.63;;;8.97;nan
76864;BME280;65834;52.364;9.754;2023-04-25T09:08:04;100397.13;;;8.86;nan
76864;BME280;65834;52.364;9.754;2023-04-25T09:10:34;100405.09;;;9.02;nan
76864;BME280;65834;52.364;9.754;2023-04-25T09:13:06;100407.66;;;8.96;nan
76864;BME280;65834;52.364;9.754;2023-04-25T09:16:09;100398.69;;;8.81;nan
76864;BME280;65834;52.364;9.754;2023-04-25T09:18:52;100407.47;;;8.83;nan
76864;BME280;65834;52.364;9.754;2023-04-25T09:21:22;100427.16;;;8.83;nan
76864;BME280;65834;52.364;9.754;2023-04-25T09:23:55;100404.09;;;8.81;nan
76864;BME280;65834;52.364;9.754;2023-04-25T09:26:27;100417.84;;;9.08;nan
76864;BME280;65834;52.364;9.754;2023-04-25T09:29:05;100439.53;;;9.15;nan
76864;BME280;65834;52.364;9.754;2023-04-25T09:31:39;100426.19;;;8.99;nan
76864;BME280;65834;52.364;9.754;2023-04-25T09:34:10;100422.09;;;9.03;nan
76864;BME280;65834;52.364;9.754;2023-04-25T09:36:47;100424.63;;;9.04;nan
76864;BME280;65834;52.364;9.754;2023-04-25T09:39:47;100427.94;;;8.92;nan
76864;BME280;65834;52.364;9.754;2023-04-25T09:42:18;100431.94;;;8.96;nan
76864;BME280;65834;52.364;9.754;2023-04-25T09:44:52;100415.97;;;8.94;nan
76864;BME280;65834;52.364;9.754;2023-04-25T09:47:23;100415.91;;;9.17;nan
76864;BME280;65834;52.364;9.754;2023-04-25T09:49:54;100422.50;;;9.14;nan
76864;BME280;65834;52.364;9.754;2023-04-25T09:52:25;100432.94;;;9.17;nan
76864;BME280;65834;52.364;9.754;2023-04-25T09:55:14;100435.63;;;9.17;nan
76864;BME280;65834;52.364;9.754;2023-04-25T09:57:47;100423.56;;;9.28;nan
76864;BME280;65834;52.364;9.754;2023-04-25T10:00:20;100426.53;;;9.33;nan
76864;BME280;65834;52.364;9.754;2023-04-25T10:02:51;100425.31;;;9.36;nan
76864;BME280;65834;52.364;9.754;2023-04-25T10:05:43;100435.31;;;9.64;nan
76864;BME280;65834;52.364;9.754;2023-04-25T10:08:13;100446.59;;;9.68;nan
76864;BME280;65834;52.364;9.754;2023-04-25T10:10:46;100449.94;;;9.55;nan
76864;BME280;65834;52.364;9.754;2023-04-25T10:13:18;100436.06;;;9.58;nan
76864;BME280;65834;52.364;9.754;2023-04-25T10:15:48;100434.41;;;9.72;nan
76864;BME280;65834;52.364;9.754;2023-04-25T10:18:18;100453.09;;;9.73;nan
76864;BME280;65834;52.364;9.754;2023-04-25T10:20:48;100463.25;;;9.71;nan
76864;BME280;65834;52.364;9.754;2023-04-25T10:23:20;100454.59;;;9.61;nan
76864;BME280;65834;52.364;9.754;2023-04-25T10:25:53;100465.38;;;9.61;nan
76864;BME280;65834;52.364;9.754;2023-04-25T10:28:23;100460.81;;;9.47;nan
76864;BME280;65834;52.364;9.754;2023-04-25T10:31:00;100473.28;;;9.63;nan
76864;BME280;65834;52.364;9.754;2023-04-25T10:33:34;100472.28;;;9.49;nan
76864;BME280;65834;52.364;9.754;2023-04-25T10:36:11;100477.03;;;9.62;nan
76864;BME280;65834;52.364;9.754;2023-04-25T10:38:42;100476.78;;;9.71;nan
76864;BME280;65834;52.364;9.754;2023-04-25T10:41:14;100479.75;;;9.76;nan
76864;BME280;65834;52.364;9.754;2023-04-25T10:43:47;100476.56;;;9.88;nan
76864;BME280;65834;52.364;9.754;2023-04-25T10:46:19;100480.03;;;9.96;nan
76864;BME280;65834;52.364;9.754;2023-04-25T10:48:52;100487.94;;;9.68;nan
76864;BME280;65834;52.364;9.754;2023-04-25T10:51:23;100485.34;;;9.75;nan
76864;BME280;65834;52.364;9.754;2023-04-25T10:53:57;100489.22;;;9.58;nan
76864;BME280;65834;52.364;9.754;2023-04-25T10:56:31;100476.88;;;9.78;nan
76864;BME280;65834;52.364;9.754;2023-04-25T10:59:06;100485.41;;;9.67;nan
76864;BME280;65834;52.364;9.754;2023-04-25T11:01:39;100484.56;;;9.66;nan
76864;BME280;65834;52.364;9.754;2023-04-25T11:04:21;100486.09;;;9.69;nan
76864;BME280;65834;52.364;9.754;2023-04-25T11:06:55;100489.31;;;9.50;nan
76864;BME280;65834;52.364;9.754;2023-04-25T11:09:32;100497.53;;;9.56;nan
76864;BME280;65834;52.364;9.754;2023-04-25T11:12:06;100497.22;;;9.66;nan
76864;BME280;65834;52.364;9.754;2023-04-25T11:14:38;100499.97;;;9.80;nan
76864;BME280;65834;52.364;9.754;2023-04-25T11:17:08;100499.59;;;9.69;nan
76864;BME280;65834;52.364;9.754;2023-04-25T11:19:38;100496.69;;;10.00;nan
76864;BME280;65834;52.364;9.754;2023-04-25T11:22:09;100489.25;;;10.02;nan
76864;BME280;65834;52.364;9.754;2023-04-25T11:24:39;100499.69;;;10.05;nan
76864;BME280;65834;52.364;9.754;2023-04-25T11:27:12;100501.38;;;10.06;nan
76864;BME280;65834;52.364;9.754;2023-04-25T11:29:41;100490.16;;;9.94;nan
76864;BME280;65834;52.364;9.754;2023-04-25T11:32:11;100493.72;;;9.95;nan
76864;BME280;65834;52.364;9.754;2023-04-25T11:34:43;100493.13;;;9.85;nan
76864;BME280;65834;52.364;9.754;2023-04-25T11:37:13;100509.81;;;9.88;nan
76864;BME280;65834;52.364;9.754;2023-04-25T11:39:44;100517.22;;;9.57;nan
76864;BME280;65834;52.364;9.754;2023-04-25T11:42:17;100514.72;;;9.41;nan
76864;BME280;65834;52.364;9.754;2023-04-25T11:44:47;100533.19;;;9.29;nan
76864;BME280;65834;52.364;9.754;2023-04-25T11:47:16;100536.00;;;9.36;nan
76864;BME280;65834;52.364;9.754;2023-04-25T11:49:46;100540.84;;;9.40;nan
76864;BME280;65834;52.364;9.754;2023-04-25T11:52:15;100549.69;;;9.11;nan
76864;BME280;65834;52.364;9.754;2023-04-25T11:54:49;100544.53;;;9.24;nan
76864;BME280;65834;52.364;9.754;2023-04-25T11:57:21;100538.53;;;9.14;nan
76864;BME280;65834;52.364;9.754;2023-04-25T11:59:51;100527.72;;;9.14;nan
76864;BME280;65834;52.364;9.754;2023-04-25T12:02:24;100530.03;;;9.25;nan
76864;BME280;65834;52.364;9.754;2023-04-25T12:04:59;100540.91;;;9.32;nan
76864;BME280;65834;52.364;9.754;2023-04-25T12:07:47;100530.81;;;9.49;nan
76864;BME280;65834;52.364;9.754;2023-04-25T12:10:18;100525.56;;;9.70;nan
76864;BME280;65834;52.364;9.754;2023-04-25T12:12:50;100533.03;;;9.82;nan
76864;BME280;65834;52.364;9.754;2023-04-25T12:15:24;100529.56;;;9.74;nan
76864;BME280;65834;52.364;9.754;2023-04-25T12:17:54;100537.41;;;9.84;nan
76864;BME280;65834;52.364;9.754;2023-04-25T12:20:25;100536.25;;;10.30;nan
76864;BME280;65834;52.364;9.754;2023-04-25T12:22:57;100540.81;;;10.15;nan
76864;BME280;65834;52.364;9.754;2023-04-25T12:25:34;100541.97;;;10.56;nan
76864;BME280;65834;52.364;9.754;2023-04-25T12:28:15;100553.59;;;10.71;nan
76864;BME280;65834;52.364;9.754;2023-04-25T12:30:56;100560.81;;;11.00;nan
76864;BME280;65834;52.364;9.754;2023-04-25T12:33:29;100559.41;;;11.04;nan
76864;BME280;65834;52.364;9.754;2023-04-25T12:36:00;100557.50;;;11.05;nan
76864;BME280;65834;52.364;9.754;2023-04-25T12:38:36;100556.72;;;11.11;nan
76864;BME280;65834;52.364;9.754;2023-04-25T12:41:07;100566.97;;;10.94;nan
76864;BME280;65834;52.364;9.754;2023-04-25T12:43:39;100566.56;;;10.61;nan
76864;BME280;65834;52.364;9.754;2023-04-25T12:46:09;100588.25;;;10.32;nan
76864;BME280;65834;52.364;9.754;2023-04-25T12:48:38;100584.00;;;10.00;nan
76864;BME280;65834;52.364;9.754;2023-04-25T12:51:08;100572.16;;;9.49;nan
76864;BME280;65834;52.364;9.754;2023-04-25T12:53:38;100574.25;;;9.39;nan
76864;BME280;65834;52.364;9.754;2023-04-25T12:56:07;100575.72;;;9.27;nan
76864;BME280;65834;52.364;9.754;2023-04-25T12:58:39;100582.50;;;9.60;nan
76864;BME280;65834;52.364;9.754;2023-04-25T13:01:10;100570.34;;;9.42;nan
76864;BME280;65834;52.364;9.754;2023-04-25T13:03:41;100585.53;;;9.43;nan
76864;BME280;65834;52.364;9.754;2023-04-25T13:06:11;100585.31;;;9.52;nan
76864;BME280;65834;52.364;9.754;2023-04-25T13:08:42;100581.88;;;9.36;nan
76864;BME280;65834;52.364;9.754;2023-04-25T13:11:12;100587.00;;;9.31;nan
76864;BME280;65834;52.364;9.754;2023-04-25T13:13:44;100590.72;;;9.07;nan
76864;BME280;65834;52.364;9.754;2023-04-25T13:16:14;100595.25;;;8.76;nan
76864;BME280;65834;52.364;9.754;2023-04-25T13:18:47;100602.72;;;8.65;nan
76864;BME280;65834;52.364;9.754;2023-04-25T13:21:16;100597.75;;;8.85;nan
76864;BME280;65834;52.364;9.754;2023-04-25T13:23:46;100601.50;;;8.76;nan
76864;BME280;65834;52.364;9.754;2023-04-25T13:26:16;100596.34;;;8.58;nan
76864;BME280;65834;52.364;9.754;2023-04-25T13:28:48;100601.22;;;8.63;nan
76864;BME280;65834;52.364;9.754;2023-04-25T13:31:18;100599.03;;;8.58;nan
76864;BME280;65834;52.364;9.754;2023-04-25T13:33:48;100600.66;;;8.76;nan
76864;BME280;65834;52.364;9.754;2023-04-25T13:36:18;100591.88;;;8.82;nan
76864;BME280;65834;52.364;9.754;2023-04-25T13:38:47;100597.88;;;8.92;nan
76864;BME280;65834;52.364;9.754;2023-04-25T13:41:17;100603.50;;;9.05;nan
76864;BME280;65834;52.364;9.754;2023-04-25T13:43:49;100593.63;;;8.97;nan
76864;BME280;65834;52.364;9.754;2023-04-25T13:46:19;100601.63;;;9.59;nan
76864;BME280;65834;52.364;9.754;2023-04-25T13:48:51;100597.19;;;9.80;nan
76864;BME280;65834;52.364;9.754;2023-04-25T13:51:25;100593.38;;;10.27;nan
76864;BME280;65834;52.364;9.754;2023-04-25T13:53:56;100588.97;;;10.70;nan
76864;BME280;65834;52.364;9.754;2023-04-25T13:56:26;100593.47;;;10.48;nan
76864;BME280;65834;52.364;9.754;2023-04-25T13:58:58;100614.34;;;10.25;nan